createdAt,value
2022-12-22T00:00:31.367Z,57.39
2022-12-22T00:03:18.586Z,57.49
2022-12-22T00:06:06.769Z,57.54
2022-12-22T00:08:53.357Z,57.39
2022-12-22T00:11:40.165Z,57.27
2022-12-22T00:14:29.070Z,57.41
2022-12-22T00:17:20.628Z,57.38
2022-12-22T00:20:07.437Z,57.29
2022-12-22T00:22:54.371Z,57.51
2022-12-22T00:25:41.528Z,57.48
2022-12-22T00:28:34.188Z,57.44
2022-12-22T00:31:21.367Z,57.44
2022-12-22T00:34:08.473Z,57.64
2022-12-22T00:36:56.408Z,57.62
2022-12-22T00:39:44.354Z,57.61
2022-12-22T00:42:34.692Z,57.78
2022-12-22T00:45:23.606Z,57.82
2022-12-22T00:48:13.112Z,57.98
2022-12-22T00:51:01.413Z,58.09
2022-12-22T00:53:49.052Z,58.12
2022-12-22T00:56:35.888Z,58.07
2022-12-22T00:59:22.568Z,58.40
2022-12-22T01:02:09.997Z,58.26
2022-12-22T01:04:57.105Z,58.39
2022-12-22T01:07:45.733Z,58.43
2022-12-22T01:10:34.037Z,58.36
2022-12-22T01:13:32.331Z,58.49
2022-12-22T01:16:21.157Z,58.60
2022-12-22T01:19:08.693Z,58.64
2022-12-22T01:21:58.121Z,58.60
2022-12-22T01:24:48.401Z,58.43
2022-12-22T01:27:36.093Z,58.68
2022-12-22T01:30:23.148Z,58.84
2022-12-22T01:33:10.160Z,58.71
2022-12-22T01:35:56.957Z,58.69
2022-12-22T01:38:44.581Z,58.87
2022-12-22T01:41:38.218Z,58.76
2022-12-22T01:44:37.077Z,58.82
2022-12-22T01:47:49.661Z,58.84
2022-12-22T01:50:50.902Z,58.59
2022-12-22T01:54:03.601Z,59.05
2022-12-22T01:56:52.945Z,59.14
2022-12-22T01:59:39.623Z,59.07
2022-12-22T02:02:27.927Z,58.94
2022-12-22T02:05:19.377Z,59.14
2022-12-22T02:08:49.954Z,59.02
2022-12-22T02:12:24.092Z,59.23
2022-12-22T02:15:53.055Z,59.21
2022-12-22T02:19:17.101Z,59.26
2022-12-22T02:22:53.330Z,59.34
2022-12-22T02:25:52.154Z,59.49
2022-12-22T02:28:40.531Z,59.44
2022-12-22T02:31:27.437Z,59.54
2022-12-22T02:34:14.130Z,59.38
2022-12-22T02:37:49.464Z,59.08
2022-12-22T02:41:04.281Z,59.19
2022-12-22T02:44:22.135Z,59.06
2022-12-22T02:47:32.240Z,59.04
2022-12-22T02:50:39.183Z,59.11
2022-12-22T02:53:27.279Z,59.01
2022-12-22T02:56:21.269Z,58.88
2022-12-22T02:59:08.101Z,58.95
2022-12-22T03:01:56.172Z,58.80
2022-12-22T03:04:43.031Z,58.97
2022-12-22T03:07:29.478Z,58.91
2022-12-22T03:10:15.999Z,59.05
2022-12-22T03:13:02.710Z,58.89
2022-12-22T03:15:49.208Z,58.84
2022-12-22T03:18:35.961Z,58.96
2022-12-22T03:21:22.504Z,58.92
2022-12-22T03:24:08.813Z,58.89
2022-12-22T03:26:36.554Z,58.84
2022-12-22T03:29:04.346Z,58.83
2022-12-22T03:31:32.158Z,58.87
2022-12-22T03:33:59.921Z,58.95
2022-12-22T03:36:27.882Z,58.69
2022-12-22T03:38:55.673Z,58.61
2022-12-22T03:41:42.367Z,58.58
2022-12-22T03:44:28.841Z,58.62
2022-12-22T03:46:56.622Z,58.68
2022-12-22T03:49:26.133Z,58.64
2022-12-22T03:51:54.215Z,58.60
2022-12-22T03:54:26.255Z,58.46
2022-12-22T03:56:54.567Z,58.70
2022-12-22T03:59:22.398Z,58.75
2022-12-22T04:01:53.868Z,58.82
2022-12-22T04:04:25.275Z,58.90
2022-12-22T04:06:54.548Z,58.85
2022-12-22T04:09:22.732Z,58.97
2022-12-22T04:12:09.247Z,59.20
2022-12-22T04:14:37.167Z,59.33
2022-12-22T04:17:07.132Z,59.28
2022-12-22T04:19:34.906Z,59.50
2022-12-22T04:22:02.865Z,59.57
2022-12-22T04:24:30.617Z,59.67
2022-12-22T04:26:58.366Z,59.67
2022-12-22T04:29:26.034Z,59.73
2022-12-22T04:31:53.724Z,59.80
2022-12-22T04:34:21.512Z,59.99
2022-12-22T04:36:49.303Z,59.97
2022-12-22T04:39:17.369Z,60.03
2022-12-22T04:41:45.213Z,60.00
2022-12-22T04:44:13.127Z,60.22
2022-12-22T04:46:40.831Z,60.31
2022-12-22T04:49:08.632Z,60.30
2022-12-22T04:51:36.255Z,60.36
2022-12-22T04:54:04.218Z,60.44
2022-12-22T04:56:31.968Z,60.45
2022-12-22T04:58:59.698Z,60.43
2022-12-22T05:01:27.697Z,60.69
2022-12-22T05:03:55.411Z,60.88
2022-12-22T05:06:23.067Z,61.08
2022-12-22T05:08:50.887Z,61.01
2022-12-22T05:11:18.693Z,60.94
2022-12-22T05:13:46.580Z,61.00
2022-12-22T05:16:17.095Z,61.03
2022-12-22T05:18:46.237Z,61.07
2022-12-22T05:21:16.982Z,60.99
2022-12-22T05:23:45.253Z,61.17
2022-12-22T05:26:14.754Z,60.85
2022-12-22T05:28:44.638Z,60.86
2022-12-22T05:31:32.288Z,60.90
2022-12-22T05:34:19.909Z,60.85
2022-12-22T05:36:47.625Z,60.81
2022-12-22T05:39:15.369Z,60.72
2022-12-22T05:41:43.079Z,60.72
2022-12-22T05:44:11.052Z,60.50
2022-12-22T05:46:38.809Z,60.46
2022-12-22T05:49:06.616Z,60.59
2022-12-22T05:51:34.384Z,60.35
2022-12-22T05:54:02.135Z,60.26
2022-12-22T05:56:29.810Z,60.32
2022-12-22T05:58:57.566Z,60.27
2022-12-22T06:01:25.333Z,60.24
2022-12-22T06:03:59.489Z,60.24
2022-12-22T06:06:27.898Z,60.18
2022-12-22T06:08:55.688Z,60.22
2022-12-22T06:11:23.364Z,60.24
2022-12-22T06:13:51.244Z,60.15
2022-12-22T06:16:19.583Z,60.10
2022-12-22T06:18:47.355Z,59.85
2022-12-22T06:21:15.094Z,60.25
2022-12-22T06:23:42.760Z,59.96
2022-12-22T06:26:10.705Z,60.11
2022-12-22T06:28:38.679Z,60.18
2022-12-22T06:31:06.440Z,60.10
2022-12-22T06:33:35.065Z,60.31
2022-12-22T06:36:09.594Z,60.30
2022-12-22T06:38:37.835Z,60.50
2022-12-22T06:41:05.789Z,60.45
2022-12-22T06:43:33.495Z,60.59
2022-12-22T06:46:01.255Z,60.70
2022-12-22T06:48:29.161Z,60.66
2022-12-22T06:51:00.685Z,60.63
2022-12-22T06:53:28.394Z,60.82
2022-12-22T06:55:56.043Z,60.81
2022-12-22T06:58:23.946Z,60.68
2022-12-22T07:00:51.662Z,60.71
2022-12-22T07:03:19.608Z,60.70
2022-12-22T07:05:47.376Z,60.36
2022-12-22T07:08:15.201Z,60.42
2022-12-22T07:10:58.107Z,60.52
2022-12-22T07:13:35.068Z,60.35
2022-12-22T07:16:05.748Z,60.15
2022-12-22T07:18:44.645Z,60.28
2022-12-22T07:21:14.255Z,60.14
2022-12-22T07:23:42.526Z,59.91
2022-12-22T07:26:15.785Z,59.87
2022-12-22T07:28:43.632Z,60.06
2022-12-22T07:31:12.628Z,59.79
2022-12-22T07:33:40.688Z,59.75
2022-12-22T07:36:18.448Z,59.46
2022-12-22T07:38:49.852Z,59.58
2022-12-22T07:41:38.586Z,59.40
2022-12-22T07:44:08.124Z,59.25
2022-12-22T07:46:39.184Z,59.05
2022-12-22T07:49:26.514Z,59.06
2022-12-22T07:51:58.046Z,58.98
2022-12-22T07:54:27.860Z,59.00
2022-12-22T07:56:56.054Z,58.80
2022-12-22T07:59:24.080Z,58.55
2022-12-22T08:01:52.210Z,58.49
2022-12-22T08:04:22.091Z,58.36
2022-12-22T08:06:50.304Z,58.13
2022-12-22T08:09:21.774Z,57.91
2022-12-22T08:11:50.477Z,57.72
2022-12-22T08:14:18.632Z,57.75
2022-12-22T08:16:46.612Z,57.88
2022-12-22T08:19:15.177Z,57.76
2022-12-22T08:21:48.498Z,57.53
2022-12-22T08:24:22.011Z,57.32
2022-12-22T08:26:55.688Z,57.40
2022-12-22T08:29:33.745Z,57.28
2022-12-22T08:32:02.291Z,56.98
2022-12-22T08:34:31.272Z,57.12
2022-12-22T08:37:02.855Z,57.45
2022-12-22T08:39:37.705Z,56.91
2022-12-22T08:42:09.320Z,57.05
2022-12-22T08:44:40.874Z,56.83
2022-12-22T08:47:16.443Z,56.64
2022-12-22T08:49:45.375Z,56.86
2022-12-22T08:52:18.461Z,56.51
2022-12-22T08:54:47.346Z,56.79
2022-12-22T08:57:15.485Z,56.69
2022-12-22T08:59:43.533Z,56.82
2022-12-22T09:02:11.518Z,56.88
2022-12-22T09:04:39.685Z,56.64
2022-12-22T09:07:07.838Z,56.66
2022-12-22T09:09:36.011Z,56.86
2022-12-22T09:12:04.456Z,56.75
2022-12-22T09:14:33.500Z,56.94
2022-12-22T09:17:01.486Z,57.01
2022-12-22T09:19:29.949Z,56.92
2022-12-22T09:21:58.105Z,57.16
2022-12-22T09:24:25.978Z,57.20
2022-12-22T09:26:54.242Z,57.40
2022-12-22T09:29:22.570Z,57.41
2022-12-22T09:31:50.875Z,57.58
2022-12-22T09:34:19.124Z,57.59
2022-12-22T09:36:48.506Z,57.72
2022-12-22T09:39:17.162Z,57.72
2022-12-22T09:41:53.796Z,57.70
2022-12-22T09:44:39.956Z,57.70
2022-12-22T09:47:29.329Z,57.68
2022-12-22T09:49:58.198Z,58.11
2022-12-22T09:52:35.329Z,57.98
2022-12-22T09:55:12.625Z,58.18
2022-12-22T09:57:40.661Z,58.13
2022-12-22T10:00:21.591Z,58.03
2022-12-22T10:03:30.080Z,58.03
2022-12-22T10:06:34.751Z,58.17
2022-12-22T10:09:48.078Z,58.15
2022-12-22T10:12:21.586Z,58.28
2022-12-22T10:14:53.247Z,58.31
2022-12-22T10:17:29.399Z,58.31
2022-12-22T10:20:21.640Z,58.18
2022-12-22T10:23:02.741Z,58.48
2022-12-22T10:26:26.778Z,58.56
2022-12-22T10:28:42.722Z,58.60
2022-12-22T10:31:24.801Z,58.94
2022-12-22T10:33:58.014Z,58.82
2022-12-22T10:36:31.640Z,58.86
2022-12-22T10:39:08.015Z,59.27
2022-12-22T10:41:47.620Z,59.15
2022-12-22T10:44:44.369Z,59.46
2022-12-22T10:47:23.921Z,59.77
2022-12-22T10:52:31.928Z,60.18
2022-12-22T10:55:25.868Z,60.16
2022-12-22T10:58:18.541Z,60.17
2022-12-22T11:01:05.123Z,60.04
2022-12-22T11:03:33.324Z,60.42
2022-12-22T11:06:01.675Z,60.36
2022-12-22T11:08:32.022Z,60.43
2022-12-22T11:11:08.628Z,60.61
2022-12-22T11:13:41.913Z,60.34
2022-12-22T11:16:17.975Z,60.31
2022-12-22T11:19:50.286Z,60.36
2022-12-22T11:23:25.760Z,60.47
2022-12-22T11:26:08.604Z,60.40
2022-12-22T11:29:05.984Z,60.39
2022-12-22T11:32:32.671Z,60.33
2022-12-22T11:35:26.184Z,60.33
2022-12-22T11:38:12.879Z,60.12
2022-12-22T11:40:46.819Z,60.27
2022-12-22T11:44:00.687Z,60.14
2022-12-22T11:47:11.174Z,60.33
2022-12-22T11:49:53.237Z,60.21
2022-12-22T11:53:16.542Z,60.33
2022-12-22T11:56:27.376Z,60.42
2022-12-22T11:59:14.622Z,60.34
2022-12-22T12:02:22.544Z,60.30
2022-12-22T12:05:35.782Z,60.21
2022-12-22T12:08:42.351Z,60.37
2022-12-22T12:11:58.865Z,60.32
2022-12-22T12:14:58.874Z,60.35
2022-12-22T12:17:56.022Z,60.19
2022-12-22T12:20:29.715Z,60.42
2022-12-22T12:24:00.278Z,60.64
2022-12-22T12:26:44.527Z,60.92
2022-12-22T12:29:35.615Z,60.86
2022-12-22T12:32:11.220Z,60.96
2022-12-22T12:34:52.726Z,61.06
2022-12-22T12:37:30.390Z,61.15
2022-12-22T12:40:16.622Z,60.95
2022-12-22T12:42:47.175Z,61.11
2022-12-22T12:45:41.677Z,60.83
2022-12-22T12:48:22.034Z,61.12
2022-12-22T12:50:57.730Z,61.06
2022-12-22T12:53:30.231Z,61.13
2022-12-22T12:56:01.912Z,61.15
2022-12-22T12:58:37.776Z,61.10
2022-12-22T13:01:34.344Z,61.08
2022-12-22T13:04:04.684Z,61.34
2022-12-22T13:06:53.340Z,61.30
2022-12-22T13:09:50.047Z,61.44
2022-12-22T13:12:49.436Z,61.45
2022-12-22T13:15:37.794Z,61.34
2022-12-22T13:18:26.277Z,61.47
2022-12-22T13:24:33.316Z,61.37
2022-12-22T13:27:06.993Z,61.45
2022-12-22T13:29:47.815Z,61.37
2022-12-22T13:32:34.803Z,61.54
2022-12-22T13:35:31.454Z,61.44
2022-12-22T13:38:00.992Z,61.42
2022-12-22T13:40:43.736Z,61.26
2022-12-22T13:43:17.953Z,61.29
2022-12-22T13:45:52.911Z,61.35
2022-12-22T13:48:25.349Z,61.56
2022-12-22T13:50:57.880Z,61.48
2022-12-22T13:54:07.658Z,61.54
2022-12-22T13:56:51.732Z,61.81
2022-12-22T13:59:35.525Z,61.57
2022-12-22T14:02:16.816Z,61.66
2022-12-22T14:05:12.435Z,61.65
2022-12-22T14:07:40.581Z,61.79
2022-12-22T14:10:10.666Z,61.71
2022-12-22T14:12:46.162Z,61.70
2022-12-22T14:15:20.170Z,61.72
2022-12-22T14:17:52.648Z,61.60
2022-12-22T14:20:38.107Z,61.69
2022-12-22T14:23:21.267Z,61.60
2022-12-22T14:25:51.187Z,61.90
2022-12-22T14:28:37.829Z,61.73
2022-12-22T14:31:07.674Z,61.99
2022-12-22T14:33:36.302Z,62.06
2022-12-22T14:36:27.453Z,61.95
2022-12-22T14:39:02.343Z,62.13
2022-12-22T14:41:52.059Z,62.10
2022-12-22T14:44:29.876Z,62.10
2022-12-22T14:47:12.241Z,62.13
2022-12-22T14:50:18.281Z,61.95
2022-12-22T14:52:59.655Z,62.03
2022-12-22T14:55:39.793Z,62.07
2022-12-22T14:58:13.159Z,61.93
2022-12-22T15:00:47.776Z,61.88
2022-12-22T15:03:36.427Z,61.61
2022-12-22T15:06:25.216Z,61.45
2022-12-22T15:09:09.337Z,61.41
2022-12-22T15:11:48.049Z,61.34
2022-12-22T15:14:25.868Z,61.38
2022-12-22T15:17:02.511Z,61.26
2022-12-22T15:19:36.848Z,61.42
2022-12-22T15:22:08.548Z,61.20
2022-12-22T15:24:36.446Z,61.31
2022-12-22T15:27:04.644Z,61.39
2022-12-22T15:29:32.877Z,61.52
2022-12-22T15:32:02.339Z,61.40
2022-12-22T15:34:32.758Z,61.44
2022-12-22T15:37:00.655Z,61.34
2022-12-22T15:39:28.841Z,61.24
2022-12-22T15:41:56.864Z,61.26
2022-12-22T15:44:25.037Z,61.12
2022-12-22T15:46:57.906Z,60.83
2022-12-22T15:49:29.549Z,60.81
2022-12-22T15:52:04.682Z,60.45
2022-12-22T15:54:33.749Z,60.66
2022-12-22T15:57:02.358Z,60.75
2022-12-22T15:59:31.030Z,60.68
2022-12-22T16:02:01.694Z,60.60
2022-12-22T16:04:30.501Z,60.51
2022-12-22T16:06:59.804Z,60.47
2022-12-22T16:09:38.267Z,60.29
2022-12-22T16:12:14.962Z,60.19
2022-12-22T16:14:50.538Z,60.16
2022-12-22T16:17:27.644Z,59.73
2022-12-22T16:19:55.773Z,59.91
2022-12-22T16:22:33.940Z,59.87
2022-12-22T16:25:07.432Z,59.98
2022-12-22T16:27:35.921Z,59.98
2022-12-22T16:30:05.131Z,59.95
2022-12-22T16:32:33.488Z,59.94
2022-12-22T16:35:19.064Z,59.69
2022-12-22T16:37:51.145Z,59.71
2022-12-22T16:40:20.026Z,59.51
2022-12-22T16:45:57.700Z,59.51
2022-12-22T16:48:38.643Z,59.66
2022-12-22T16:51:25.255Z,59.34
2022-12-22T16:53:53.656Z,59.75
2022-12-22T16:56:26.964Z,59.91
2022-12-22T16:58:55.190Z,59.88
2022-12-22T17:01:43.958Z,59.78
2022-12-22T17:04:24.422Z,59.94
2022-12-22T17:06:54.081Z,60.04
2022-12-22T17:09:40.829Z,59.93
2022-12-22T17:12:19.367Z,59.94
2022-12-22T17:14:48.111Z,59.84
2022-12-22T17:17:30.822Z,59.72
2022-12-22T17:20:00.160Z,59.97
2022-12-22T17:22:31.398Z,59.78
2022-12-22T17:25:04.938Z,59.52
2022-12-22T17:27:35.335Z,59.58
2022-12-22T17:30:04.784Z,59.50
2022-12-22T17:32:32.708Z,59.52
2022-12-22T17:35:00.733Z,59.47
2022-12-22T17:37:29.447Z,59.41
2022-12-22T17:40:01.472Z,59.24
2022-12-22T17:42:31.673Z,59.40
2022-12-22T17:44:59.659Z,59.35
2022-12-22T17:47:33.363Z,59.31
2022-12-22T17:50:02.856Z,59.28
2022-12-22T17:52:30.881Z,59.26
2022-12-22T17:54:59.255Z,59.30
2022-12-22T17:57:34.985Z,59.13
2022-12-22T18:00:04.195Z,59.33
2022-12-22T18:02:39.674Z,59.34
2022-12-22T18:05:24.531Z,59.05
2022-12-22T18:07:58.732Z,59.18
2022-12-22T18:10:36.914Z,59.18
2022-12-22T18:13:14.043Z,59.26
2022-12-22T18:15:41.956Z,59.27
2022-12-22T18:18:16.125Z,59.15
2022-12-22T18:20:46.960Z,59.24
2022-12-22T18:23:36.520Z,59.47
2022-12-22T18:26:08.416Z,59.34
2022-12-22T18:28:36.987Z,59.24
2022-12-22T18:31:05.172Z,59.50
2022-12-22T18:33:33.400Z,59.37
2022-12-22T18:36:01.558Z,59.37
2022-12-22T18:38:35.190Z,59.13
2022-12-22T18:41:03.447Z,59.36
2022-12-22T18:43:32.011Z,59.31
2022-12-22T18:46:00.053Z,59.31
2022-12-22T18:48:27.979Z,59.35
2022-12-22T18:51:00.882Z,59.29
2022-12-22T18:53:31.325Z,59.20
2022-12-22T18:55:59.902Z,59.23
2022-12-22T18:58:27.868Z,59.27
2022-12-22T19:00:56.365Z,59.23
2022-12-22T19:03:29.495Z,59.36
2022-12-22T19:05:58.701Z,59.42
2022-12-22T19:08:31.495Z,59.49
2022-12-22T19:11:05.122Z,59.76
2022-12-22T19:13:40.631Z,59.86
2022-12-22T19:16:20.797Z,59.90
2022-12-22T19:18:48.839Z,60.14
2022-12-22T19:21:18.839Z,60.22
2022-12-22T19:23:47.320Z,60.22
2022-12-22T19:26:26.912Z,60.19
2022-12-22T19:29:01.258Z,60.33
2022-12-22T19:31:40.228Z,60.17
2022-12-22T19:34:18.466Z,60.26
2022-12-22T19:36:49.328Z,60.46
2022-12-22T19:39:21.369Z,60.74
2022-12-22T19:41:54.514Z,60.55
2022-12-22T19:44:28.370Z,60.71
2022-12-22T19:47:00.306Z,60.60
2022-12-22T19:49:29.820Z,60.81
2022-12-22T19:51:59.078Z,60.82
2022-12-22T19:54:28.595Z,60.98
2022-12-22T19:56:58.670Z,60.94
2022-12-22T19:59:42.991Z,60.96
2022-12-22T20:02:31.874Z,60.87
2022-12-22T20:05:01.002Z,60.96
2022-12-22T20:07:37.262Z,60.65
2022-12-22T20:10:06.514Z,60.93
2022-12-22T20:12:38.972Z,60.64
2022-12-22T20:15:35.684Z,60.57
2022-12-22T20:18:45.494Z,60.69
2022-12-22T20:21:23.261Z,60.84
2022-12-22T20:23:55.478Z,60.61
2022-12-22T20:26:27.853Z,60.89
2022-12-22T20:28:56.873Z,60.86
2022-12-22T20:31:28.166Z,61.02
2022-12-22T20:33:57.151Z,60.88
2022-12-22T20:36:32.223Z,61.05
2022-12-22T20:39:11.880Z,61.09
2022-12-22T20:41:40.372Z,61.17
2022-12-22T20:44:08.580Z,61.26
2022-12-22T20:46:40.372Z,61.23
2022-12-22T20:49:17.003Z,61.18
2022-12-22T20:51:46.227Z,61.33
2022-12-22T20:54:15.619Z,61.23
2022-12-22T20:56:45.389Z,61.15
2022-12-22T20:59:19.596Z,61.21
2022-12-22T21:01:49.618Z,61.20
2022-12-22T21:04:19.023Z,61.21
2022-12-22T21:06:51.944Z,61.06
2022-12-22T21:09:20.555Z,61.11
2022-12-22T21:11:49.476Z,60.95
2022-12-22T21:14:17.633Z,61.05
2022-12-22T21:16:45.787Z,61.03
2022-12-22T21:19:18.393Z,60.91
2022-12-22T21:21:47.300Z,60.90
2022-12-22T21:24:15.592Z,61.08
2022-12-22T21:26:49.987Z,60.92
2022-12-22T21:29:23.839Z,60.97
2022-12-22T21:31:52.250Z,61.01
2022-12-22T21:34:20.938Z,61.02
2022-12-22T21:36:57.065Z,60.93
2022-12-22T21:39:45.064Z,61.04
2022-12-22T21:42:18.435Z,60.97
2022-12-22T21:44:46.902Z,61.26
2022-12-22T21:47:19.868Z,61.06
2022-12-22T21:49:48.466Z,61.14
2022-12-22T21:52:16.705Z,61.09
2022-12-22T21:54:45.021Z,61.10
2022-12-22T21:57:16.857Z,61.00
2022-12-22T21:59:44.962Z,61.05
2022-12-22T22:02:18.327Z,60.92
2022-12-22T22:04:52.066Z,60.83
2022-12-22T22:07:22.639Z,60.95
2022-12-22T22:09:50.710Z,60.85
2022-12-22T22:12:33.995Z,60.84
2022-12-22T22:15:03.102Z,60.82
2022-12-22T22:17:31.308Z,60.70
2022-12-22T22:19:59.556Z,60.70
2022-12-22T22:22:27.558Z,60.70
2022-12-22T22:24:55.661Z,60.78
2022-12-22T22:27:23.655Z,60.80
2022-12-22T22:29:51.706Z,60.58
2022-12-22T22:32:19.709Z,60.63
2022-12-22T22:34:47.550Z,60.56
2022-12-22T22:37:15.592Z,60.47
2022-12-22T22:39:43.851Z,60.53
2022-12-22T22:42:11.821Z,60.47
2022-12-22T22:44:39.931Z,60.51
2022-12-22T22:47:07.926Z,60.50
2022-12-22T22:49:36.130Z,60.42
2022-12-22T22:52:04.233Z,60.39
2022-12-22T22:54:32.857Z,60.36
2022-12-22T22:57:01.164Z,60.47
2022-12-22T22:59:29.168Z,60.50
2022-12-22T23:01:57.085Z,60.49
2022-12-22T23:04:25.284Z,60.52
2022-12-22T23:06:53.171Z,60.51
2022-12-22T23:09:21.206Z,60.38
2022-12-22T23:11:52.743Z,60.45
2022-12-22T23:14:21.867Z,60.43
2022-12-22T23:16:50.043Z,60.56
2022-12-22T23:19:18.674Z,60.44
2022-12-22T23:21:46.845Z,60.57
2022-12-22T23:24:16.084Z,60.51
2022-12-22T23:26:43.869Z,60.56
2022-12-22T23:29:11.688Z,60.71
2022-12-22T23:31:39.779Z,60.63
2022-12-22T23:34:07.763Z,60.59
2022-12-22T23:36:35.544Z,60.53
2022-12-22T23:39:03.958Z,60.76
2022-12-22T23:41:32.025Z,60.77
2022-12-22T23:43:59.881Z,60.71
2022-12-22T23:46:27.679Z,60.85
2022-12-22T23:48:57.900Z,60.72
2022-12-22T23:51:28.375Z,60.96
2022-12-22T23:53:59.087Z,61.03
2022-12-22T23:56:31.000Z,61.12
2022-12-22T23:58:59.197Z,60.97
